Time;durP1;ratioP1;P1;durP2;ratioP2;P2;SDS_P1;SDS_P2;PMS_P1;PMS_P2;Temp;Humidity;BMP_temperature;BMP_pressure;BME280_temperature;BME280_humidity;BME280_pressure;Samples;Min_cycle;Max_cycle;Signal;HPM_P1;HPM_P2
2021/08/11 00:02:19;;;;;;;0.50;0.30;;;15.70;99.90;;;;;;5037840;28;20438;-84
2021/08/11 00:04:46;;;;;;;0.50;0.30;;;15.70;99.90;;;;;;5037817;28;20848;-84
2021/08/11 00:07:13;;;;;;;0.50;0.30;;;15.70;99.90;;;;;;5037896;28;20453;-84
2021/08/11 00:09:39;;;;;;;0.50;0.50;;;15.70;99.90;;;;;;5038311;28;20445;-84
2021/08/11 00:12:07;;;;;;;0.50;0.30;;;15.70;99.90;;;;;;5037337;28;20445;-84
2021/08/11 00:14:34;;;;;;;1.03;1.00;;;15.70;99.90;;;;;;5037638;28;20466;-84
2021/08/11 00:17:00;;;;;;;0.60;0.50;;;15.70;99.90;;;;;;5037559;28;20449;-84
2021/08/11 00:19:28;;;;;;;1.07;1.07;;;15.70;99.90;;;;;;5037372;28;20435;-84
2021/08/11 00:21:55;;;;;;;0.50;0.30;;;15.70;99.90;;;;;;5037210;28;20447;-83
2021/08/11 00:24:22;;;;;;;0.50;0.40;;;15.70;99.90;;;;;;5037243;28;20478;-84
2021/08/11 00:26:48;;;;;;;0.50;0.30;;;15.60;99.90;;;;;;5036507;28;20453;-83
2021/08/11 00:29:15;;;;;;;0.50;0.40;;;15.60;99.90;;;;;;5037853;28;20453;-83
2021/08/11 00:31:42;;;;;;;0.67;0.67;;;15.50;99.90;;;;;;5036532;28;20442;-83
2021/08/11 00:34:09;;;;;;;0.50;0.40;;;15.50;99.90;;;;;;5037308;28;20470;-84
2021/08/11 00:36:37;;;;;;;0.50;0.30;;;15.50;99.90;;;;;;5037904;28;20435;-84
2021/08/11 00:39:03;;;;;;;0.50;0.40;;;15.50;99.90;;;;;;5037190;28;20434;-85
2021/08/11 00:41:30;;;;;;;1.13;0.97;;;15.50;99.90;;;;;;5036888;28;20438;-83
2021/08/11 00:43:57;;;;;;;1.13;1.13;;;15.50;99.90;;;;;;5037192;28;20477;-84
2021/08/11 00:46:24;;;;;;;3.63;1.03;;;15.50;99.90;;;;;;5036964;28;20442;-84
2021/08/11 00:48:51;;;;;;;0.50;0.50;;;15.50;99.90;;;;;;5037506;28;20449;-83
2021/08/11 00:51:17;;;;;;;0.50;0.37;;;15.50;99.90;;;;;;5036092;28;20800;-84
2021/08/11 00:53:48;;;;;;;0.70;0.67;;;15.60;99.90;;;;;;5036421;28;20465;-84
2021/08/11 00:56:19;;;;;;;0.50;0.30;;;15.60;99.90;;;;;;5036954;28;20489;-82
2021/08/11 00:58:46;;;;;;;0.50;0.40;;;15.60;99.90;;;;;;5036812;28;20446;-80
2021/08/11 01:01:13;;;;;;;0.50;0.30;;;15.60;99.90;;;;;;5036585;28;20446;-81
2021/08/11 01:03:40;;;;;;;1.00;1.00;;;15.60;99.90;;;;;;5036566;28;20829;-80
2021/08/11 01:06:08;;;;;;;0.50;0.40;;;15.60;99.90;;;;;;5036383;28;20434;-83
2021/08/11 01:08:37;;;;;;;0.50;0.30;;;15.60;99.90;;;;;;5036549;28;20518;-83
2021/08/11 01:11:05;;;;;;;0.50;0.40;;;15.50;99.90;;;;;;5035943;28;20446;-83
2021/08/11 01:13:33;;;;;;;1.70;0.90;;;15.50;99.90;;;;;;5036572;28;20825;-82
2021/08/11 01:16:00;;;;;;;5.53;5.00;;;15.50;99.90;;;;;;5050317;23;20482;-86
2021/08/11 01:18:27;;;;;;;0.50;0.40;;;15.60;99.90;;;;;;5044312;28;20952;-85
2021/08/11 01:21:00;;;;;;;0.50;0.40;;;15.50;99.90;;;;;;5035286;28;20816;-84
2021/08/11 01:23:34;;;;;;;2.60;2.40;;;15.50;99.90;;;;;;5035476;28;20851;-84
2021/08/11 01:26:07;;;;;;;0.50;0.30;;;15.50;99.90;;;;;;5036732;28;20465;-83
2021/08/11 01:28:51;;;;;;;0.50;0.30;;;15.50;99.90;;;;;;5034598;28;20455;-83
2021/08/11 01:31:20;;;;;;;1.80;1.13;;;15.50;99.90;;;;;;5034994;28;20461;-83
2021/08/11 01:33:58;;;;;;;0.50;0.30;;;15.50;99.90;;;;;;5035286;28;20491;-83
2021/08/11 01:36:37;;;;;;;1.73;1.63;;;15.50;99.90;;;;;;5035774;28;20471;-82
2021/08/11 01:39:07;;;;;;;1.93;1.80;;;15.50;99.90;;;;;;5035855;28;20449;-84
2021/08/11 01:41:36;;;;;;;4.23;2.00;;;15.50;99.90;;;;;;5038866;28;20441;-84
2021/08/11 01:44:07;;;;;;;0.60;0.60;;;15.50;99.90;;;;;;5038118;28;20478;-84
2021/08/11 01:46:37;;;;;;;0.50;0.30;;;15.50;99.90;;;;;;5039095;28;20469;-83
2021/08/11 01:49:08;;;;;;;0.50;0.30;;;15.50;99.90;;;;;;5038643;28;20435;-84
2021/08/11 01:51:39;;;;;;;0.50;0.50;;;15.50;99.90;;;;;;5038206;28;20442;-83
2021/08/11 01:54:07;;;;;;;0.50;0.40;;;15.50;99.90;;;;;;5038382;28;20446;-84
2021/08/11 01:56:35;;;;;;;0.50;0.30;;;15.50;99.90;;;;;;5038409;28;20462;-83
2021/08/11 01:59:03;;;;;;;0.63;0.63;;;15.50;99.90;;;;;;5038578;28;20438;-83
2021/08/11 02:01:30;;;;;;;0.50;0.30;;;15.40;99.90;;;;;;5038383;28;20997;-81
2021/08/11 02:03:57;;;;;;;0.50;0.30;;;15.40;99.90;;;;;;5038749;28;20482;-83
2021/08/11 02:06:28;;;;;;;0.50;0.40;;;15.40;99.90;;;;;;5038603;28;20466;-82
2021/08/11 02:08:56;;;;;;;0.53;0.47;;;15.50;99.90;;;;;;5038314;28;20467;-83
2021/08/11 02:11:24;;;;;;;0.50;0.30;;;15.50;99.90;;;;;;5037902;28;20443;-83
2021/08/11 02:13:51;;;;;;;0.50;0.40;;;15.50;99.90;;;;;;5038208;28;20446;-84
2021/08/11 02:16:19;;;;;;;0.50;0.50;;;15.50;99.90;;;;;;5037679;28;20474;-83
2021/08/11 02:18:46;;;;;;;0.50;0.30;;;15.50;99.90;;;;;;5038449;28;20500;-83
2021/08/11 02:21:13;;;;;;;0.50;0.30;;;15.50;99.90;;;;;;5037769;28;20510;-84
2021/08/11 02:23:42;;;;;;;0.50;0.30;;;15.40;99.90;;;;;;5037841;28;20438;-83
2021/08/11 02:26:16;;;;;;;0.50;0.30;;;15.40;99.90;;;;;;5038336;28;20828;-83
2021/08/11 02:28:50;;;;;;;0.50;0.40;;;15.30;99.90;;;;;;5038316;28;20427;-83
2021/08/11 02:31:26;;;;;;;0.50;0.40;;;15.30;99.90;;;;;;5037422;28;20430;-83
2021/08/11 02:33:58;;;;;;;0.50;0.30;;;15.20;99.90;;;;;;5038047;28;20418;-84
2021/08/11 02:36:29;;;;;;;0.50;0.30;;;15.20;99.90;;;;;;5038140;28;20450;-82
2021/08/11 02:39:05;;;;;;;0.50;0.40;;;15.10;99.90;;;;;;5037717;28;20442;-84
2021/08/11 02:41:37;;;;;;;0.50;0.30;;;15.20;99.90;;;;;;5037077;28;21017;-80
2021/08/11 02:44:09;;;;;;;0.50;0.30;;;15.20;99.90;;;;;;5037041;28;20462;-84
2021/08/11 02:46:40;;;;;;;0.50;0.30;;;15.20;99.90;;;;;;5037150;28;20462;-84
2021/08/11 02:49:13;;;;;;;0.50;0.40;;;15.20;99.90;;;;;;5037616;28;20446;-84
2021/08/11 02:51:41;;;;;;;0.50;0.30;;;15.10;99.90;;;;;;5036422;28;20445;-83
2021/08/11 02:54:13;;;;;;;0.50;0.40;;;15.10;99.90;;;;;;5038001;28;20914;-83
2021/08/11 02:56:43;;;;;;;10.20;1.27;;;15.20;99.90;;;;;;5037107;28;20469;-84
2021/08/11 02:59:11;;;;;;;1.13;1.03;;;15.20;99.90;;;;;;5037337;28;20442;-83
2021/08/11 03:01:38;;;;;;;0.50;0.30;;;15.30;99.90;;;;;;5036975;28;20446;-82
2021/08/11 03:04:06;;;;;;;0.50;0.37;;;15.30;99.90;;;;;;5036901;28;20482;-83
2021/08/11 03:06:34;;;;;;;0.50;0.30;;;15.30;99.90;;;;;;5037452;28;21011;-82
2021/08/11 03:09:01;;;;;;;0.50;0.30;;;15.30;99.90;;;;;;5038389;28;20773;-84
2021/08/11 03:11:30;;;;;;;0.50;0.30;;;15.30;99.90;;;;;;5042927;28;20454;-82
2021/08/11 03:13:57;;;;;;;1.07;1.00;;;15.20;99.90;;;;;;5038318;28;20435;-83
2021/08/11 03:16:24;;;;;;;0.50;0.30;;;15.20;99.90;;;;;;5037091;28;20470;-80
2021/08/11 03:18:51;;;;;;;0.50;0.30;;;15.20;99.90;;;;;;5036833;28;20457;-84
2021/08/11 03:21:18;;;;;;;0.50;0.40;;;15.10;99.90;;;;;;5037517;28;20438;-84
2021/08/11 03:23:45;;;;;;;0.50;0.30;;;15.10;99.90;;;;;;5037524;28;20907;-85
2021/08/11 03:26:12;;;;;;;0.50;0.30;;;15.10;99.90;;;;;;5036856;28;20461;-84
2021/08/11 03:28:40;;;;;;;2.20;2.00;;;15.00;99.90;;;;;;5037730;28;20441;-83
2021/08/11 03:31:07;;;;;;;0.50;0.30;;;15.00;99.90;;;;;;5036238;28;20443;-83
2021/08/11 03:33:34;;;;;;;0.50;0.30;;;15.00;99.90;;;;;;5037357;28;20443;-81
2021/08/11 03:36:00;;;;;;;0.50;0.33;;;14.90;99.90;;;;;;5037586;28;20464;-83
2021/08/11 03:38:27;;;;;;;0.50;0.30;;;15.00;99.90;;;;;;5037310;28;20444;-80
2021/08/11 03:40:54;;;;;;;0.50;0.30;;;14.90;99.90;;;;;;5036897;28;20962;-83
2021/08/11 03:43:20;;;;;;;0.50;0.30;;;14.90;99.90;;;;;;5037413;28;20439;-83
2021/08/11 03:45:49;;;;;;;0.50;0.40;;;14.90;99.90;;;;;;5037201;28;20486;-84
2021/08/11 03:48:15;;;;;;;0.50;0.30;;;14.90;99.90;;;;;;5036618;28;20441;-83
2021/08/11 03:50:42;;;;;;;0.60;0.60;;;14.90;99.90;;;;;;5036662;28;20827;-85
2021/08/11 03:53:10;;;;;;;0.50;0.50;;;15.00;99.90;;;;;;5036728;28;20930;-84
2021/08/11 03:55:36;;;;;;;0.50;0.40;;;15.00;99.90;;;;;;5039735;28;20449;-82
2021/08/11 03:58:04;;;;;;;0.50;0.30;;;15.00;99.90;;;;;;5040410;28;20446;-81
2021/08/11 04:00:31;;;;;;;0.97;0.73;;;15.00;99.90;;;;;;5038927;28;20536;-77
2021/08/11 04:02:59;;;;;;;0.50;0.30;;;15.00;99.90;;;;;;5034961;28;20445;-83
2021/08/11 04:05:27;;;;;;;0.50;0.40;;;15.00;99.90;;;;;;5035319;28;20487;-84
2021/08/11 04:07:54;;;;;;;0.50;0.30;;;15.00;99.90;;;;;;5035357;28;20972;-83
2021/08/11 04:10:20;;;;;;;0.50;0.40;;;15.00;99.90;;;;;;5033925;28;20455;-82
2021/08/11 04:12:47;;;;;;;0.47;0.30;;;15.00;99.90;;;;;;5035181;28;20450;-81
2021/08/11 04:15:14;;;;;;;0.50;0.30;;;14.90;99.90;;;;;;5035094;28;20454;-82
2021/08/11 04:17:41;;;;;;;0.50;0.30;;;14.90;99.90;;;;;;5034269;28;21014;-82
2021/08/11 04:20:11;;;;;;;0.50;0.30;;;15.00;99.90;;;;;;5034186;28;20819;-80
2021/08/11 04:22:37;;;;;;;0.50;0.30;;;15.00;99.90;;;;;;5034562;28;20434;-81
2021/08/11 04:25:05;;;;;;;0.77;0.77;;;15.10;99.90;;;;;;5033997;28;20478;-83
2021/08/11 04:27:32;;;;;;;0.50;0.40;;;15.10;99.90;;;;;;5034106;28;20465;-82
2021/08/11 04:29:59;;;;;;;0.50;0.30;;;15.20;99.90;;;;;;5033660;28;20443;-83
2021/08/11 04:32:25;;;;;;;0.50;0.37;;;15.20;99.90;;;;;;5033890;28;20442;-83
2021/08/11 04:34:52;;;;;;;0.50;0.30;;;15.20;99.90;;;;;;5033781;28;20796;-82
2021/08/11 04:37:20;;;;;;;1.30;1.13;;;15.30;99.90;;;;;;5033777;28;20470;-81
2021/08/11 04:39:48;;;;;;;5.73;3.43;;;15.30;99.90;;;;;;5032938;28;20445;-82
2021/08/11 04:42:14;;;;;;;0.50;0.40;;;15.30;99.90;;;;;;5033290;28;20450;-81
2021/08/11 04:44:41;;;;;;;0.50;0.30;;;15.30;99.90;;;;;;5033316;28;20470;-81
2021/08/11 04:47:08;;;;;;;0.70;0.70;;;15.40;99.90;;;;;;5033888;28;20465;-83
2021/08/11 04:49:35;;;;;;;0.50;0.30;;;15.40;99.90;;;;;;5033351;28;20962;-82
2021/08/11 04:52:01;;;;;;;0.50;0.30;;;15.40;99.90;;;;;;5033724;28;20453;-82
2021/08/11 04:54:29;;;;;;;0.50;0.30;;;15.50;99.90;;;;;;5033327;28;20439;-82
2021/08/11 04:56:56;;;;;;;0.50;0.30;;;15.50;99.90;;;;;;5033400;28;20462;-82
2021/08/11 04:59:23;;;;;;;0.50;0.30;;;15.50;99.90;;;;;;5033416;28;20932;-83
2021/08/11 05:01:49;;;;;;;0.50;0.30;;;15.50;99.90;;;;;;5032978;28;20445;-82
2021/08/11 05:04:16;;;;;;;0.43;0.30;;;15.60;99.90;;;;;;5033534;28;20439;-82
2021/08/11 05:06:43;;;;;;;0.40;0.30;;;15.60;99.90;;;;;;5033698;28;20965;-83
2021/08/11 05:09:10;;;;;;;0.50;0.30;;;15.50;99.90;;;;;;5033187;28;20454;-82
2021/08/11 05:11:40;;;;;;;0.50;0.30;;;15.50;99.90;;;;;;5032130;28;20474;-82
2021/08/11 05:14:07;;;;;;;0.50;0.30;;;15.60;99.90;;;;;;5035503;28;20538;-81
2021/08/11 05:16:33;;;;;;;0.50;0.30;;;15.70;99.90;;;;;;5036477;28;20469;-81
2021/08/11 05:19:00;;;;;;;0.50;0.30;;;15.90;99.90;;;;;;5036686;28;20948;-83
2021/08/11 05:21:27;;;;;;;0.93;0.93;;;16.00;99.90;;;;;;5035098;28;20438;-83
2021/08/11 05:23:54;;;;;;;0.50;0.30;;;16.10;99.90;;;;;;5036471;28;20465;-83
2021/08/11 05:26:22;;;;;;;0.50;0.30;;;16.20;99.90;;;;;;5036118;28;20482;-82
2021/08/11 05:28:51;;;;;;;0.50;0.30;;;16.30;99.90;;;;;;5036701;28;20438;-82
2021/08/11 05:31:18;;;;;;;0.50;0.40;;;16.30;99.90;;;;;;5035863;28;20444;-81
2021/08/11 05:33:44;;;;;;;0.50;0.30;;;16.40;99.90;;;;;;5036868;28;20533;-82
2021/08/11 05:36:11;;;;;;;0.50;0.30;;;16.50;99.90;;;;;;5036403;28;20455;-83
2021/08/11 05:38:39;;;;;;;0.50;0.30;;;16.60;99.90;;;;;;5036662;28;20442;-82
2021/08/11 05:41:05;;;;;;;0.50;0.30;;;16.70;99.90;;;;;;5036081;28;20450;-83
2021/08/11 05:43:32;;;;;;;2.20;1.80;;;16.80;99.90;;;;;;5035654;28;20955;-83
2021/08/11 05:46:01;;;;;;;0.50;0.30;;;16.90;99.90;;;;;;5035364;28;20492;-81
2021/08/11 05:48:27;;;;;;;0.50;0.30;;;17.00;99.90;;;;;;5036008;28;20465;-80
2021/08/11 05:50:54;;;;;;;0.50;0.30;;;17.00;99.90;;;;;;5035942;28;20442;-82
2021/08/11 05:53:21;;;;;;;0.50;0.30;;;17.10;99.90;;;;;;5035533;28;20982;-82
2021/08/11 05:55:49;;;;;;;0.50;0.30;;;17.10;99.90;;;;;;5035870;28;20465;-82
2021/08/11 05:58:16;;;;;;;0.50;0.30;;;17.10;99.90;;;;;;5035909;28;20439;-82
2021/08/11 06:00:43;;;;;;;0.50;0.30;;;17.20;99.90;;;;;;5035578;28;20439;-82
2021/08/11 06:03:11;;;;;;;2.23;2.13;;;17.40;99.90;;;;;;5036872;28;20439;-82
2021/08/11 06:05:38;;;;;;;0.50;0.40;;;17.40;99.90;;;;;;5036952;28;20474;-83
2021/08/11 06:08:05;;;;;;;0.50;0.30;;;17.40;99.90;;;;;;5036078;28;20442;-82
2021/08/11 06:10:32;;;;;;;1.90;1.50;;;17.50;99.90;;;;;;5035632;28;20464;-79
2021/08/11 06:12:59;;;;;;;2.40;0.97;;;17.50;99.90;;;;;;5036486;28;20441;-82
2021/08/11 06:15:25;;;;;;;1.03;1.03;;;17.50;99.90;;;;;;5035730;28;20444;-83
2021/08/11 06:17:52;;;;;;;1.83;1.73;;;17.40;99.90;;;;;;5035811;28;20967;-83
2021/08/11 06:20:23;;;;;;;0.50;0.50;;;17.30;99.90;;;;;;5036377;28;20439;-82
2021/08/11 06:22:50;;;;;;;1.20;1.10;;;17.30;99.90;;;;;;5035946;28;20441;-83
2021/08/11 06:25:18;;;;;;;0.50;0.40;;;17.30;99.90;;;;;;5035378;28;20482;-82
2021/08/11 06:27:44;;;;;;;1.27;1.17;;;17.30;99.90;;;;;;5035182;28;20550;-82
2021/08/11 06:30:12;;;;;;;0.70;0.70;;;17.40;99.90;;;;;;5035552;28;20441;-82
2021/08/11 06:32:39;;;;;;;1.97;1.53;;;17.50;99.90;;;;;;5036069;28;20776;-82
2021/08/11 06:35:07;;;;;;;3.63;3.43;;;17.60;99.90;;;;;;5036146;28;20439;-82
2021/08/11 06:37:43;;;;;;;1.47;1.37;;;17.80;99.90;;;;;;5035399;28;20454;-81
2021/08/11 06:40:11;;;;;;;0.50;0.30;;;17.70;99.90;;;;;;5035548;28;20446;-80
2021/08/11 06:42:38;;;;;;;1.37;1.27;;;17.70;99.90;;;;;;5035326;28;20439;-82
2021/08/11 06:45:05;;;;;;;3.13;1.30;;;17.70;99.90;;;;;;5035755;28;20804;-82
2021/08/11 06:47:32;;;;;;;2.20;1.37;;;17.70;99.90;;;;;;5035314;28;20455;-82
2021/08/11 06:49:59;;;;;;;1.67;1.60;;;17.80;99.90;;;;;;5035556;28;20450;-81
2021/08/11 06:52:28;;;;;;;0.50;0.30;;;17.90;99.90;;;;;;5034519;28;20495;-84
2021/08/11 06:54:56;;;;;;;1.07;0.97;;;18.10;99.90;;;;;;5035256;28;20525;-82
2021/08/11 06:57:23;;;;;;;0.50;0.30;;;18.20;99.90;;;;;;5035295;28;20999;-82
2021/08/11 06:59:49;;;;;;;0.50;0.40;;;18.40;99.90;;;;;;5035442;28;20443;-82
2021/08/11 07:02:17;;;;;;;0.50;0.30;;;18.50;99.90;;;;;;5034715;28;20536;-82
2021/08/11 07:04:43;;;;;;;34.00;31.80;;;18.60;99.90;;;;;;5034794;28;20446;-82
2021/08/11 07:07:10;;;;;;;0.50;0.33;;;18.80;99.90;;;;;;5035136;28;20482;-81
2021/08/11 07:09:37;;;;;;;0.50;0.33;;;18.90;99.90;;;;;;5035236;28;20442;-81
2021/08/11 07:12:06;;;;;;;0.50;0.40;;;19.00;99.90;;;;;;5034677;28;20465;-81
2021/08/11 07:14:32;;;;;;;5.13;3.53;;;19.00;99.90;;;;;;5033617;28;20435;-82
2021/08/11 07:16:59;;;;;;;0.50;0.40;;;19.10;99.90;;;;;;5052551;22;21289;-86
2021/08/11 07:19:26;;;;;;;0.50;0.30;;;19.00;99.90;;;;;;5043506;28;20542;-85
2021/08/11 07:21:53;;;;;;;0.50;0.30;;;18.90;99.90;;;;;;5050617;28;20444;-86
2021/08/11 07:24:20;;;;;;;0.50;0.40;;;19.00;99.90;;;;;;5055561;28;20943;-85
2021/08/11 07:26:47;;;;;;;0.50;0.30;;;19.00;99.90;;;;;;5055193;28;20481;-86
2021/08/11 07:29:15;;;;;;;1.07;1.07;;;19.10;99.90;;;;;;5054864;28;20453;-86
2021/08/11 07:31:42;;;;;;;0.50;0.30;;;19.10;99.90;;;;;;5054311;28;20445;-83
2021/08/11 07:34:08;;;;;;;0.50;0.40;;;19.10;99.90;;;;;;5054248;28;20512;-86
2021/08/11 07:36:35;;;;;;;0.50;0.50;;;19.20;99.90;;;;;;5053731;28;20462;-86
2021/08/11 07:39:02;;;;;;;1.27;1.27;;;19.30;99.90;;;;;;5053521;28;20442;-87
2021/08/11 07:41:28;;;;;;;0.50;0.30;;;19.30;99.90;;;;;;5054430;28;20455;-87
2021/08/11 07:43:55;;;;;;;0.50;0.40;;;19.40;99.90;;;;;;5054306;28;20788;-85
2021/08/11 07:46:24;;;;;;;0.50;0.40;;;19.50;99.90;;;;;;5053294;28;20477;-86
2021/08/11 07:48:51;;;;;;;0.50;0.33;;;19.60;99.90;;;;;;5053494;28;20443;-87
2021/08/11 07:51:18;;;;;;;0.50;0.40;;;19.70;99.90;;;;;;5053516;28;20438;-86
2021/08/11 07:53:45;;;;;;;0.60;0.60;;;19.90;99.90;;;;;;5055373;28;20433;-86
2021/08/11 07:56:11;;;;;;;0.90;0.90;;;20.00;99.90;;;;;;5054379;28;20437;-86
2021/08/11 07:58:38;;;;;;;0.50;0.40;;;19.90;99.90;;;;;;5054472;28;20457;-85
2021/08/11 08:01:05;;;;;;;0.50;0.40;;;19.90;99.90;;;;;;5053645;28;20463;-85
2021/08/11 08:03:33;;;;;;;1.13;1.03;;;19.90;99.90;;;;;;5054064;28;20445;-86
2021/08/11 08:06:00;;;;;;;0.50;0.40;;;19.80;99.90;;;;;;5053858;28;20488;-84
2021/08/11 08:08:26;;;;;;;0.50;0.40;;;19.90;99.90;;;;;;5054129;28;20484;-86
2021/08/11 08:10:53;;;;;;;0.50;0.40;;;20.30;99.90;;;;;;5053619;28;20796;-84
2021/08/11 08:13:20;;;;;;;0.50;0.40;;;21.00;99.90;;;;;;5054573;28;20460;-86
2021/08/11 08:15:48;;;;;;;0.60;0.50;;;21.40;99.90;;;;;;5054425;28;20442;-86
2021/08/11 08:18:21;;;;;;;0.50;0.30;;;21.50;99.90;;;;;;5055189;28;20477;-86
2021/08/11 08:20:49;;;;;;;3.50;2.23;;;21.30;99.90;;;;;;5054075;28;20793;-86
2021/08/11 08:23:16;;;;;;;0.50;0.40;;;21.30;99.90;;;;;;5054031;28;20675;-87
2021/08/11 08:25:43;;;;;;;0.50;0.40;;;21.20;99.90;;;;;;5054587;28;20472;-85
2021/08/11 08:28:09;;;;;;;0.50;0.40;;;21.40;99.90;;;;;;5053479;28;20470;-85
2021/08/11 08:30:36;;;;;;;2.30;1.30;;;21.60;99.90;;;;;;5054233;28;20440;-85
2021/08/11 08:33:03;;;;;;;1.03;0.60;;;21.60;99.90;;;;;;5055429;28;20449;-86
2021/08/11 08:35:30;;;;;;;1.20;1.10;;;22.60;99.90;;;;;;5054599;28;20446;-86
2021/08/11 08:37:59;;;;;;;0.50;0.40;;;23.70;99.90;;;;;;5054602;28;20475;-86
2021/08/11 08:40:31;;;;;;;0.50;0.40;;;24.70;99.90;;;;;;5056404;28;20437;-85
2021/08/11 08:42:58;;;;;;;0.50;0.30;;;25.80;99.90;;;;;;5056800;28;20432;-86
2021/08/11 08:45:26;;;;;;;1.93;1.83;;;26.30;99.90;;;;;;5055581;28;20460;-84
2021/08/11 08:47:53;;;;;;;0.50;0.30;;;26.00;99.90;;;;;;5056631;28;20459;-82
2021/08/11 08:50:20;;;;;;;0.80;0.60;;;25.40;99.90;;;;;;5059989;28;20442;-82
2021/08/11 08:52:47;;;;;;;1.07;1.00;;;24.90;99.90;;;;;;5060627;28;20438;-85
2021/08/11 08:55:17;;;;;;;0.50;0.40;;;24.40;99.90;;;;;;5059774;28;20444;-84
2021/08/11 08:57:43;;;;;;;0.50;0.30;;;24.50;99.90;;;;;;5059578;28;20461;-86
2021/08/11 09:00:12;;;;;;;1.67;0.97;;;24.90;99.90;;;;;;5059042;28;20449;-85
2021/08/11 09:02:39;;;;;;;0.50;0.40;;;25.10;99.90;;;;;;5059938;28;20757;-86
2021/08/11 09:05:06;;;;;;;0.50;0.33;;;25.30;99.90;;;;;;5060368;28;20438;-86
2021/08/11 09:07:33;;;;;;;0.53;0.47;;;26.70;99.90;;;;;;5059699;28;20486;-85
2021/08/11 09:10:15;;;;;;;0.50;0.40;;;28.90;99.90;;;;;;5060531;28;20440;-83
2021/08/11 09:12:46;;;;;;;0.50;0.30;;;31.10;99.90;;;;;;5061428;28;20429;-86
2021/08/11 09:15:28;;;;;;;0.80;0.80;;;31.70;99.90;;;;;;5059977;28;20449;-86
2021/08/11 09:17:54;;;;;;;0.70;0.60;;;31.60;98.30;;;;;;5060585;28;20460;-85
2021/08/11 09:20:24;;;;;;;0.50;0.40;;;31.00;99.90;;;;;;5060996;28;20790;-82
2021/08/11 09:22:53;;;;;;;0.50;0.30;;;30.50;99.90;;;;;;5060782;28;20936;-85
2021/08/11 09:25:21;;;;;;;0.50;0.30;;;31.30;99.90;;;;;;5060273;28;20459;-85
2021/08/11 09:27:50;;;;;;;0.50;0.30;;;32.00;99.10;;;;;;5058668;28;20482;-86
2021/08/11 09:30:19;;;;;;;1.20;1.17;;;33.50;94.90;;;;;;5058561;28;20459;-84
2021/08/11 09:32:52;;;;;;;1.63;0.63;;;33.90;83.40;;;;;;5060343;28;20449;-86
2021/08/11 09:35:20;;;;;;;0.40;0.30;;;32.60;84.90;;;;;;5061025;28;20447;-85
2021/08/11 09:37:48;;;;;;;0.50;0.30;;;32.40;91.80;;;;;;5059717;28;20503;-86
2021/08/11 09:40:17;;;;;;;0.40;0.30;;;33.50;88.20;;;;;;5058371;28;20441;-82
2021/08/11 09:42:45;;;;;;;1.03;1.03;;;34.50;83.10;;;;;;5059023;28;20878;-85
2021/08/11 09:45:15;;;;;;;0.43;0.30;;;35.00;75.80;;;;;;5058837;28;20502;-87
2021/08/11 09:47:54;;;;;;;0.40;0.30;;;35.10;72.50;;;;;;5057883;28;20543;-86
2021/08/11 09:50:32;;;;;;;0.50;0.40;;;34.90;71.30;;;;;;5059230;28;20445;-82
2021/08/11 09:53:00;;;;;;;2.83;2.40;;;33.30;74.90;;;;;;5059321;28;20794;-85
2021/08/11 09:55:27;;;;;;;0.50;0.30;;;31.50;77.80;;;;;;5060730;28;20438;-87
2021/08/11 09:57:53;;;;;;;0.50;0.30;;;30.60;86.10;;;;;;5061068;28;20461;-85
2021/08/11 10:00:22;;;;;;;0.50;0.40;;;30.20;87.30;;;;;;5058581;28;20452;-83
2021/08/11 10:03:03;;;;;;;0.50;0.50;;;29.50;93.30;;;;;;5059368;28;20482;-86
2021/08/11 10:05:34;;;;;;;1.10;1.10;;;29.80;99.30;;;;;;5060736;28;20436;-84
2021/08/11 10:08:01;;;;;;;8.43;2.27;;;29.60;95.30;;;;;;5060584;28;20497;-86
2021/08/11 10:10:28;;;;;;;3.13;2.93;;;29.30;97.00;;;;;;5059996;28;20472;-86
2021/08/11 10:12:55;;;;;;;0.50;0.40;;;29.60;99.90;;;;;;5059500;28;20472;-85
2021/08/11 10:15:24;;;;;;;0.50;0.30;;;30.90;94.60;;;;;;5058314;28;20529;-87
2021/08/11 10:17:52;;;;;;;0.50;0.30;;;32.40;90.70;;;;;;5058869;28;20493;-86
2021/08/11 10:20:21;;;;;;;0.50;0.30;;;33.40;82.30;;;;;;5058429;28;20445;-85
2021/08/11 10:22:49;;;;;;;0.93;0.80;;;34.20;83.00;;;;;;5059299;28;20438;-86
2021/08/11 10:25:16;;;;;;;0.40;0.30;;;35.20;70.80;;;;;;5058207;28;20448;-86
2021/08/11 10:27:45;;;;;;;0.50;0.30;;;35.30;69.70;;;;;;5058987;28;20542;-82
2021/08/11 10:30:14;;;;;;;0.77;0.60;;;33.00;71.50;;;;;;5059706;28;20437;-86
2021/08/11 10:32:42;;;;;;;0.50;0.30;;;31.50;74.50;;;;;;5059561;28;20444;-86
2021/08/11 10:35:10;;;;;;;0.50;0.40;;;30.60;79.70;;;;;;5059777;28;20444;-85
2021/08/11 10:37:37;;;;;;;0.60;0.60;;;30.10;82.20;;;;;;5059354;28;20457;-87
2021/08/11 10:40:04;;;;;;;0.50;0.30;;;30.60;85.60;;;;;;5059062;28;20454;-83
2021/08/11 10:42:31;;;;;;;0.67;0.47;;;31.30;82.50;;;;;;5058205;28;20450;-85
2021/08/11 10:45:00;;;;;;;0.50;0.30;;;32.20;82.20;;;;;;5059013;28;20918;-86
2021/08/11 10:47:32;;;;;;;0.50;0.30;;;30.90;76.50;;;;;;5059650;28;20477;-86
2021/08/11 10:50:02;;;;;;;0.50;0.40;;;29.60;81.00;;;;;;5060169;28;20457;-85
2021/08/11 10:52:31;;;;;;;0.50;0.30;;;28.80;83.60;;;;;;5059714;28;20441;-85
2021/08/11 10:54:59;;;;;;;0.50;0.30;;;28.20;90.80;;;;;;5059870;28;20445;-87
2021/08/11 10:57:48;;;;;;;0.50;0.40;;;28.60;98.20;;;;;;5067881;28;20876;-87
2021/08/11 11:00:38;;;;;;;3.80;1.80;;;28.50;98.20;;;;;;5060889;28;20430;-83
2021/08/11 11:03:05;;;;;;;0.50;0.30;;;28.80;99.80;;;;;;5062345;28;20437;-86
2021/08/11 11:06:03;;;;;;;0.50;0.30;;;29.40;99.90;;;;;;5062275;28;20449;-87
2021/08/11 11:08:35;;;;;;;0.50;0.30;;;30.30;99.90;;;;;;5061417;28;20487;-86
2021/08/11 11:11:36;;;;;;;0.50;0.50;;;31.90;90.70;;;;;;5060077;28;20436;-86
2021/08/11 11:14:04;;;;;;;1.20;0.90;;;32.30;80.90;;;;;;5062203;28;20447;-87
2021/08/11 11:17:01;;;;;;;4.10;2.53;;;31.40;76.50;;;;;;5061682;28;20461;-86
2021/08/11 11:19:28;;;;;;;2.33;2.23;;;30.90;81.00;;;;;;5059437;28;20445;-86
2021/08/11 11:21:56;;;;;;;0.50;0.30;;;30.80;83.40;;;;;;5057688;28;20452;-85
2021/08/11 11:24:48;;;;;;;0.50;0.30;;;31.40;81.80;;;;;;5058394;28;20441;-86
2021/08/11 11:28:02;;;;;;;0.50;0.40;;;30.70;78.40;;;;;;5060067;28;20489;-86
2021/08/11 11:30:33;;;;;;;0.87;0.87;;;30.00;82.80;;;;;;5057970;28;20433;-86
2021/08/11 11:33:31;;;;;;;0.50;0.40;;;29.70;83.30;;;;;;5059376;28;20457;-85
2021/08/11 11:36:23;;;;;;;0.50;0.40;;;29.10;86.60;;;;;;5059488;28;20439;-86
2021/08/11 11:39:08;;;;;;;0.50;0.30;;;29.50;94.20;;;;;;5058937;28;20512;-86
2021/08/11 11:41:36;;;;;;;0.50;0.30;;;29.70;84.90;;;;;;5061134;28;20434;-86
2021/08/11 11:44:41;;;;;;;0.50;0.30;;;29.60;88.30;;;;;;5060304;28;21073;-85
2021/08/11 11:47:08;;;;;;;0.50;0.30;;;30.80;91.90;;;;;;5058268;28;20476;-85
2021/08/11 11:49:34;;;;;;;0.50;0.30;;;32.40;83.40;;;;;;5056113;28;20501;-86
2021/08/11 11:52:02;;;;;;;0.50;0.30;;;33.10;75.40;;;;;;5055466;28;20447;-85
2021/08/11 11:54:31;;;;;;;0.50;0.30;;;32.90;73.00;;;;;;5057103;28;20441;-84
2021/08/11 11:56:58;;;;;;;0.47;0.30;;;33.00;71.50;;;;;;5058223;28;20498;-86
2021/08/11 11:59:27;;;;;;;1.03;1.03;;;33.00;73.30;;;;;;5057961;28;20468;-86
2021/08/11 12:01:56;;;;;;;0.50;0.30;;;33.40;72.20;;;;;;5057120;28;20442;-86
2021/08/11 12:04:25;;;;;;;0.40;0.30;;;34.40;76.30;;;;;;5055875;28;20438;-84
2021/08/11 12:06:52;;;;;;;0.40;0.30;;;35.80;65.60;;;;;;5056316;28;20533;-86
2021/08/11 12:09:19;;;;;;;0.50;0.40;;;36.50;60.70;;;;;;5061407;28;21034;-84
2021/08/11 12:11:47;;;;;;;0.40;0.30;;;36.30;58.10;;;;;;5057392;28;20465;-83
2021/08/11 12:14:24;;;;;;;1.27;0.93;;;35.50;59.50;;;;;;5058138;28;20438;-83
2021/08/11 12:16:51;;;;;;;0.50;0.50;;;35.60;60.20;;;;;;5058003;28;20558;-87
2021/08/11 12:19:20;;;;;;;0.50;0.30;;;34.40;60.80;;;;;;5059557;28;21054;-87
2021/08/11 12:21:49;;;;;;;0.50;0.30;;;32.80;63.10;;;;;;5058390;28;20457;-86
2021/08/11 12:24:16;;;;;;;0.50;0.30;;;32.70;66.30;;;;;;5056730;28;20810;-86
2021/08/11 12:26:43;;;;;;;36.53;29.00;;;32.20;65.00;;;;;;5057096;28;20466;-87
2021/08/11 12:29:22;;;;;;;0.50;0.30;;;31.10;70.90;;;;;;5058776;28;20812;-86
2021/08/11 12:31:50;;;;;;;0.57;0.57;;;30.70;75.60;;;;;;5058568;28;20444;-85
2021/08/11 12:34:18;;;;;;;0.50;0.40;;;30.60;73.30;;;;;;5060181;28;20435;-86
2021/08/11 12:36:45;;;;;;;0.50;0.30;;;30.00;74.60;;;;;;5059534;28;20461;-86
2021/08/11 12:39:14;;;;;;;0.50;0.30;;;30.00;73.80;;;;;;5059738;28;20471;-86
2021/08/11 12:41:43;;;;;;;1.20;1.17;;;30.20;72.60;;;;;;5060407;28;20829;-85
2021/08/11 12:44:18;;;;;;;0.50;0.30;;;30.30;74.10;;;;;;5058331;28;20442;-85
2021/08/11 12:46:52;;;;;;;1.67;1.17;;;31.50;76.40;;;;;;5057985;28;20469;-86
2021/08/11 12:49:21;;;;;;;0.50;0.30;;;32.00;69.60;;;;;;5057388;28;20426;-86
2021/08/11 12:51:49;;;;;;;0.50;0.50;;;32.40;69.30;;;;;;5057089;28;20443;-86
2021/08/11 12:54:16;;;;;;;0.97;0.97;;;31.50;68.80;;;;;;5058322;28;20439;-87
2021/08/11 12:56:59;;;;;;;0.50;0.30;;;30.90;71.50;;;;;;5059115;28;20494;-86